sensor_id;sensor_type;location;lat;lon;timestamp;temperature;humidity
33903;DHT22;20194;50.950;5.346;2023-05-29T00:00:35;18.10;13.60
33903;DHT22;20194;50.950;5.346;2023-05-29T00:03:01;17.70;19.20
33903;DHT22;20194;50.950;5.346;2023-05-29T00:05:27;17.80;19.20
33903;DHT22;20194;50.950;5.346;2023-05-29T00:07:53;17.80;17.40
33903;DHT22;20194;50.950;5.346;2023-05-29T00:10:18;17.60;21.30
33903;DHT22;20194;50.950;5.346;2023-05-29T00:12:44;17.60;22.30
33903;DHT22;20194;50.950;5.346;2023-05-29T00:15:10;17.80;21.50
33903;DHT22;20194;50.950;5.346;2023-05-29T00:17:36;17.60;19.60
33903;DHT22;20194;50.950;5.346;2023-05-29T00:20:04;17.80;19.30
33903;DHT22;20194;50.950;5.346;2023-05-29T00:22:35;17.90;17.80
33903;DHT22;20194;50.950;5.346;2023-05-29T00:25:06;17.80;18.10
33903;DHT22;20194;50.950;5.346;2023-05-29T00:27:33;17.90;18.50
33903;DHT22;20194;50.950;5.346;2023-05-29T00:29:59;17.70;21.20
33903;DHT22;20194;50.950;5.346;2023-05-29T00:32:25;17.50;22.60
33903;DHT22;20194;50.950;5.346;2023-05-29T00:34:53;17.60;20.30
33903;DHT22;20194;50.950;5.346;2023-05-29T00:37:19;17.10;25.50
33903;DHT22;20194;50.950;5.346;2023-05-29T00:39:49;17.00;27.70
33903;DHT22;20194;50.950;5.346;2023-05-29T00:42:14;17.20;25.30
33903;DHT22;20194;50.950;5.346;2023-05-29T00:44:40;17.00;26.90
33903;DHT22;20194;50.950;5.346;2023-05-29T00:47:07;16.90;28.70
33903;DHT22;20194;50.950;5.346;2023-05-29T00:49:34;17.00;27.70
33903;DHT22;20194;50.950;5.346;2023-05-29T00:52:01;16.70;30.80
33903;DHT22;20194;50.950;5.346;2023-05-29T00:54:29;16.90;30.00
33903;DHT22;20194;50.950;5.346;2023-05-29T00:56:56;17.00;27.10
33903;DHT22;20194;50.950;5.346;2023-05-29T00:59:23;17.10;26.20
33903;DHT22;20194;50.950;5.346;2023-05-29T01:01:49;17.20;25.80
33903;DHT22;20194;50.950;5.346;2023-05-29T01:04:16;17.00;26.60
33903;DHT22;20194;50.950;5.346;2023-05-29T01:06:42;17.00;27.70
33903;DHT22;20194;50.950;5.346;2023-05-29T01:09:10;16.80;28.70
33903;DHT22;20194;50.950;5.346;2023-05-29T01:14:53;16.30;35.60
33903;DHT22;20194;50.950;5.346;2023-05-29T01:20:42;16.40;36.30
33903;DHT22;20194;50.950;5.346;2023-05-29T01:28:16;16.20;38.90
33903;DHT22;20194;50.950;5.346;2023-05-29T01:30:43;16.00;41.50
33903;DHT22;20194;50.950;5.346;2023-05-29T01:33:09;16.30;40.30
33903;DHT22;20194;50.950;5.346;2023-05-29T01:35:36;16.30;38.60
33903;DHT22;20194;50.950;5.346;2023-05-29T01:38:02;16.00;41.50
33903;DHT22;20194;50.950;5.346;2023-05-29T01:40:27;16.10;41.00
33903;DHT22;20194;50.950;5.346;2023-05-29T01:42:53;16.00;42.60
33903;DHT22;20194;50.950;5.346;2023-05-29T01:45:20;16.10;41.70
33903;DHT22;20194;50.950;5.346;2023-05-29T01:47:46;16.20;40.10
33903;DHT22;20194;50.950;5.346;2023-05-29T01:50:15;16.10;41.50
33903;DHT22;20194;50.950;5.346;2023-05-29T01:52:42;16.20;40.70
33903;DHT22;20194;50.950;5.346;2023-05-29T01:55:08;16.20;40.90
33903;DHT22;20194;50.950;5.346;2023-05-29T01:57:35;16.20;40.80
33903;DHT22;20194;50.950;5.346;2023-05-29T02:00:03;16.00;41.10
33903;DHT22;20194;50.950;5.346;2023-05-29T02:02:38;15.90;43.80
33903;DHT22;20194;50.950;5.346;2023-05-29T02:05:06;16.00;42.80
33903;DHT22;20194;50.950;5.346;2023-05-29T02:07:33;16.00;43.10
33903;DHT22;20194;50.950;5.346;2023-05-29T02:09:59;16.10;42.00
33903;DHT22;20194;50.950;5.346;2023-05-29T02:12:25;16.00;41.30
33903;DHT22;20194;50.950;5.346;2023-05-29T02:14:51;15.80;42.80
33903;DHT22;20194;50.950;5.346;2023-05-29T02:17:17;15.70;44.10
33903;DHT22;20194;50.950;5.346;2023-05-29T02:19:44;15.80;43.20
33903;DHT22;20194;50.950;5.346;2023-05-29T02:22:10;15.70;42.80
33903;DHT22;20194;50.950;5.346;2023-05-29T02:24:36;15.50;45.20
33903;DHT22;20194;50.950;5.346;2023-05-29T02:27:01;15.50;43.40
33903;DHT22;20194;50.950;5.346;2023-05-29T02:29:28;15.50;43.40
33903;DHT22;20194;50.950;5.346;2023-05-29T02:31:54;15.50;45.60
33903;DHT22;20194;50.950;5.346;2023-05-29T02:34:19;15.70;41.90
33903;DHT22;20194;50.950;5.346;2023-05-29T02:36:48;15.80;39.70
33903;DHT22;20194;50.950;5.346;2023-05-29T02:39:14;15.90;39.50
33903;DHT22;20194;50.950;5.346;2023-05-29T02:41:40;15.80;39.90
33903;DHT22;20194;50.950;5.346;2023-05-29T02:44:05;15.70;38.70
33903;DHT22;20194;50.950;5.346;2023-05-29T02:46:31;15.80;41.10
33903;DHT22;20194;50.950;5.346;2023-05-29T02:48:57;15.60;38.30
33903;DHT22;20194;50.950;5.346;2023-05-29T02:51:22;15.70;37.60
33903;DHT22;20194;50.950;5.346;2023-05-29T02:53:48;15.50;34.90
33903;DHT22;20194;50.950;5.346;2023-05-29T02:56:14;15.20;38.90
33903;DHT22;20194;50.950;5.346;2023-05-29T02:58:41;15.30;38.70
33903;DHT22;20194;50.950;5.346;2023-05-29T03:01:07;14.90;42.20
33903;DHT22;20194;50.950;5.346;2023-05-29T03:03:33;14.90;41.50
33903;DHT22;20194;50.950;5.346;2023-05-29T03:05:59;14.70;42.90
33903;DHT22;20194;50.950;5.346;2023-05-29T03:08:26;14.30;45.70
33903;DHT22;20194;50.950;5.346;2023-05-29T03:10:53;14.50;44.50
33903;DHT22;20194;50.950;5.346;2023-05-29T03:13:19;14.70;40.80
33903;DHT22;20194;50.950;5.346;2023-05-29T03:15:46;14.50;42.60
33903;DHT22;20194;50.950;5.346;2023-05-29T03:18:12;14.50;42.00
33903;DHT22;20194;50.950;5.346;2023-05-29T03:20:38;14.50;40.10
33903;DHT22;20194;50.950;5.346;2023-05-29T03:23:03;14.30;40.80
33903;DHT22;20194;50.950;5.346;2023-05-29T03:25:29;14.30;40.90
33903;DHT22;20194;50.950;5.346;2023-05-29T03:27:55;14.10;41.80
33903;DHT22;20194;50.950;5.346;2023-05-29T03:30:21;14.20;42.50
33903;DHT22;20194;50.950;5.346;2023-05-29T03:32:47;14.20;41.00
33903;DHT22;20194;50.950;5.346;2023-05-29T03:35:12;14.00;41.70
33903;DHT22;20194;50.950;5.346;2023-05-29T03:37:38;14.00;39.80
33903;DHT22;20194;50.950;5.346;2023-05-29T03:40:05;14.00;39.80
33903;DHT22;20194;50.950;5.346;2023-05-29T03:42:30;14.10;40.80
33903;DHT22;20194;50.950;5.346;2023-05-29T03:44:56;14.10;38.40
33903;DHT22;20194;50.950;5.346;2023-05-29T03:47:22;14.20;36.10
33903;DHT22;20194;50.950;5.346;2023-05-29T03:49:48;14.20;36.00
33903;DHT22;20194;50.950;5.346;2023-05-29T03:52:14;14.00;36.90
33903;DHT22;20194;50.950;5.346;2023-05-29T03:54:40;13.80;38.50
33903;DHT22;20194;50.950;5.346;2023-05-29T03:57:06;14.00;35.80
33903;DHT22;20194;50.950;5.346;2023-05-29T03:59:32;14.10;33.90
33903;DHT22;20194;50.950;5.346;2023-05-29T04:01:58;14.20;32.10
33903;DHT22;20194;50.950;5.346;2023-05-29T04:04:24;14.30;31.40
33903;DHT22;20194;50.950;5.346;2023-05-29T04:06:50;14.20;31.50
33903;DHT22;20194;50.950;5.346;2023-05-29T04:09:15;14.10;30.00
33903;DHT22;20194;50.950;5.346;2023-05-29T04:11:41;14.00;32.70
33903;DHT22;20194;50.950;5.346;2023-05-29T04:14:09;14.10;31.70
33903;DHT22;20194;50.950;5.346;2023-05-29T04:16:35;14.20;30.10
33903;DHT22;20194;50.950;5.346;2023-05-29T04:19:01;14.10;28.10
33903;DHT22;20194;50.950;5.346;2023-05-29T04:21:26;14.00;30.00
33903;DHT22;20194;50.950;5.346;2023-05-29T04:23:52;13.90;32.10
33903;DHT22;20194;50.950;5.346;2023-05-29T04:26:20;14.00;31.80
33903;DHT22;20194;50.950;5.346;2023-05-29T04:28:52;14.00;34.00
33903;DHT22;20194;50.950;5.346;2023-05-29T04:31:23;14.00;30.00
33903;DHT22;20194;50.950;5.346;2023-05-29T04:33:51;13.80;34.10
33903;DHT22;20194;50.950;5.346;2023-05-29T04:36:23;13.70;34.90
33903;DHT22;20194;50.950;5.346;2023-05-29T04:38:53;13.90;32.90
33903;DHT22;20194;50.950;5.346;2023-05-29T04:41:19;14.00;28.80
33903;DHT22;20194;50.950;5.346;2023-05-29T04:43:49;13.90;31.60
33903;DHT22;20194;50.950;5.346;2023-05-29T04:46:15;13.70;31.70
33903;DHT22;20194;50.950;5.346;2023-05-29T04:48:41;13.50;34.80
33903;DHT22;20194;50.950;5.346;2023-05-29T04:51:06;13.60;33.40
33903;DHT22;20194;50.950;5.346;2023-05-29T04:53:39;13.50;35.30
33903;DHT22;20194;50.950;5.346;2023-05-29T04:56:06;13.30;38.20
33903;DHT22;20194;50.950;5.346;2023-05-29T04:58:32;13.40;37.20
33903;DHT22;20194;50.950;5.346;2023-05-29T05:00:58;13.50;36.10
33903;DHT22;20194;50.950;5.346;2023-05-29T05:03:24;13.60;36.50
33903;DHT22;20194;50.950;5.346;2023-05-29T05:05:51;13.50;35.30
33903;DHT22;20194;50.950;5.346;2023-05-29T05:08:17;13.50;36.40
33903;DHT22;20194;50.950;5.346;2023-05-29T05:10:43;13.40;37.20
33903;DHT22;20194;50.950;5.346;2023-05-29T05:13:09;13.50;36.20
33903;DHT22;20194;50.950;5.346;2023-05-29T05:15:37;13.60;35.10
33903;DHT22;20194;50.950;5.346;2023-05-29T05:18:02;13.60;34.30
33903;DHT22;20194;50.950;5.346;2023-05-29T05:20:28;13.50;36.30
33903;DHT22;20194;50.950;5.346;2023-05-29T05:22:54;13.70;36.00
33903;DHT22;20194;50.950;5.346;2023-05-29T05:25:21;13.90;36.50
33903;DHT22;20194;50.950;5.346;2023-05-29T05:27:47;13.90;32.60
33903;DHT22;20194;50.950;5.346;2023-05-29T05:30:13;14.00;32.00
33903;DHT22;20194;50.950;5.346;2023-05-29T05:32:38;14.20;32.00
33903;DHT22;20194;50.950;5.346;2023-05-29T05:35:05;14.20;30.20
33903;DHT22;20194;50.950;5.346;2023-05-29T05:37:30;14.30;29.40
33903;DHT22;20194;50.950;5.346;2023-05-29T05:39:56;14.60;28.00
33903;DHT22;20194;50.950;5.346;2023-05-29T05:42:23;14.90;23.00
33903;DHT22;20194;50.950;5.346;2023-05-29T05:44:49;14.80;26.00
33903;DHT22;20194;50.950;5.346;2023-05-29T05:47:15;14.90;27.60
33903;DHT22;20194;50.950;5.346;2023-05-29T05:49:40;15.00;24.40
33903;DHT22;20194;50.950;5.346;2023-05-29T05:52:06;15.00;21.50
33903;DHT22;20194;50.950;5.346;2023-05-29T05:54:32;15.20;22.70
33903;DHT22;20194;50.950;5.346;2023-05-29T05:56:58;15.20;19.60
33903;DHT22;20194;50.950;5.346;2023-05-29T05:59:24;15.40;22.20
33903;DHT22;20194;50.950;5.346;2023-05-29T06:01:49;15.30;19.60
33903;DHT22;20194;50.950;5.346;2023-05-29T06:04:15;15.30;19.00
33903;DHT22;20194;50.950;5.346;2023-05-29T06:06:41;15.30;18.20
33903;DHT22;20194;50.950;5.346;2023-05-29T06:09:06;15.50;21.40
33903;DHT22;20194;50.950;5.346;2023-05-29T06:11:32;15.80;15.00
33903;DHT22;20194;50.950;5.346;2023-05-29T06:13:58;15.80;14.90
33903;DHT22;20194;50.950;5.346;2023-05-29T06:16:24;15.90;12.60
33903;DHT22;20194;50.950;5.346;2023-05-29T06:18:50;15.90;9.60
33903;DHT22;20194;50.950;5.346;2023-05-29T06:21:16;15.80;14.00
33903;DHT22;20194;50.950;5.346;2023-05-29T06:23:41;16.20;11.60
33903;DHT22;20194;50.950;5.346;2023-05-29T06:26:07;16.30;10.30
33903;DHT22;20194;50.950;5.346;2023-05-29T06:28:33;16.60;3.60
33903;DHT22;20194;50.950;5.346;2023-05-29T06:30:58;16.10;6.10
33903;DHT22;20194;50.950;5.346;2023-05-29T06:33:24;15.80;10.70
33903;DHT22;20194;50.950;5.346;2023-05-29T06:35:51;15.90;11.50
33903;DHT22;20194;50.950;5.346;2023-05-29T06:38:17;16.10;15.00
33903;DHT22;20194;50.950;5.346;2023-05-29T06:40:43;16.20;8.50
33903;DHT22;20194;50.950;5.346;2023-05-29T06:43:08;16.40;5.50
33903;DHT22;20194;50.950;5.346;2023-05-29T06:45:37;16.50;3.70
33903;DHT22;20194;50.950;5.346;2023-05-29T06:48:03;16.40;6.20
33903;DHT22;20194;50.950;5.346;2023-05-29T06:50:29;16.80;2.40
33903;DHT22;20194;50.950;5.346;2023-05-29T06:52:55;16.80;1.00
33903;DHT22;20194;50.950;5.346;2023-05-29T06:55:20;16.80;1.00
33903;DHT22;20194;50.950;5.346;2023-05-29T06:57:46;16.60;1.00
33903;DHT22;20194;50.950;5.346;2023-05-29T07:00:12;16.70;1.00
33903;DHT22;20194;50.950;5.346;2023-05-29T07:02:38;16.80;1.00
33903;DHT22;20194;50.950;5.346;2023-05-29T07:05:05;17.00;1.00
33903;DHT22;20194;50.950;5.346;2023-05-29T07:07:31;16.90;1.00
33903;DHT22;20194;50.950;5.346;2023-05-29T07:09:57;16.80;1.00
33903;DHT22;20194;50.950;5.346;2023-05-29T07:12:22;16.80;1.00
33903;DHT22;20194;50.950;5.346;2023-05-29T07:14:49;17.10;1.00
33903;DHT22;20194;50.950;5.346;2023-05-29T07:17:15;17.30;1.00
33903;DHT22;20194;50.950;5.346;2023-05-29T07:19:41;17.50;1.00
33903;DHT22;20194;50.950;5.346;2023-05-29T07:22:07;17.60;1.00
33903;DHT22;20194;50.950;5.346;2023-05-29T07:24:32;17.60;1.00
33903;DHT22;20194;50.950;5.346;2023-05-29T07:26:58;17.70;1.00
33903;DHT22;20194;50.950;5.346;2023-05-29T07:29:24;17.80;1.00
33903;DHT22;20194;50.950;5.346;2023-05-29T07:31:51;17.80;1.00
33903;DHT22;20194;50.950;5.346;2023-05-29T07:34:17;18.10;1.00
33903;DHT22;20194;50.950;5.346;2023-05-29T07:39:22;18.50;1.00
33903;DHT22;20194;50.950;5.346;2023-05-29T07:41:48;18.70;1.00
33903;DHT22;20194;50.950;5.346;2023-05-29T07:44:13;18.60;1.00
33903;DHT22;20194;50.950;5.346;2023-05-29T07:46:39;18.80;1.00
33903;DHT22;20194;50.950;5.346;2023-05-29T07:49:04;18.90;1.00
33903;DHT22;20194;50.950;5.346;2023-05-29T07:51:31;18.80;1.00
33903;DHT22;20194;50.950;5.346;2023-05-29T07:53:57;19.00;1.00
33903;DHT22;20194;50.950;5.346;2023-05-29T07:56:23;18.90;1.00
33903;DHT22;20194;50.950;5.346;2023-05-29T07:58:51;18.80;1.00
33903;DHT22;20194;50.950;5.346;2023-05-29T08:01:19;18.90;1.00
33903;DHT22;20194;50.950;5.346;2023-05-29T08:03:44;18.90;1.00
33903;DHT22;20194;50.950;5.346;2023-05-29T08:06:10;19.20;1.00
33903;DHT22;20194;50.950;5.346;2023-05-29T08:08:37;19.10;1.00
33903;DHT22;20194;50.950;5.346;2023-05-29T08:11:02;19.30;1.00
33903;DHT22;20194;50.950;5.346;2023-05-29T08:13:29;19.60;1.00
33903;DHT22;20194;50.950;5.346;2023-05-29T08:15:56;19.60;1.00
33903;DHT22;20194;50.950;5.346;2023-05-29T08:18:24;19.70;1.00
33903;DHT22;20194;50.950;5.346;2023-05-29T08:20:50;19.80;1.00
33903;DHT22;20194;50.950;5.346;2023-05-29T08:23:16;19.70;1.00
33903;DHT22;20194;50.950;5.346;2023-05-29T08:25:41;19.50;1.00
33903;DHT22;20194;50.950;5.346;2023-05-29T08:28:07;19.60;1.00
33903;DHT22;20194;50.950;5.346;2023-05-29T08:30:33;19.90;1.00
33903;DHT22;20194;50.950;5.346;2023-05-29T08:32:58;20.10;1.00
33903;DHT22;20194;50.950;5.346;2023-05-29T08:35:25;19.70;1.00
33903;DHT22;20194;50.950;5.346;2023-05-29T08:37:51;19.80;1.00
33903;DHT22;20194;50.950;5.346;2023-05-29T08:40:16;19.80;1.00
33903;DHT22;20194;50.950;5.346;2023-05-29T08:42:49;19.90;1.00
33903;DHT22;20194;50.950;5.346;2023-05-29T08:45:19;20.20;1.00
33903;DHT22;20194;50.950;5.346;2023-05-29T08:47:49;20.20;1.00
33903;DHT22;20194;50.950;5.346;2023-05-29T08:50:18;20.30;1.00
33903;DHT22;20194;50.950;5.346;2023-05-29T08:52:44;20.40;1.00
33903;DHT22;20194;50.950;5.346;2023-05-29T08:55:10;20.50;1.00
33903;DHT22;20194;50.950;5.346;2023-05-29T08:57:36;20.50;1.00
33903;DHT22;20194;50.950;5.346;2023-05-29T09:00:06;20.50;1.00
33903;DHT22;20194;50.950;5.346;2023-05-29T09:02:42;20.40;1.00
33903;DHT22;20194;50.950;5.346;2023-05-29T09:05:11;20.20;1.00
33903;DHT22;20194;50.950;5.346;2023-05-29T09:07:38;20.20;1.00
33903;DHT22;20194;50.950;5.346;2023-05-29T09:10:08;20.30;1.00
33903;DHT22;20194;50.950;5.346;2023-05-29T09:12:34;19.60;1.00
33903;DHT22;20194;50.950;5.346;2023-05-29T09:15:01;19.60;1.00
33903;DHT22;20194;50.950;5.346;2023-05-29T09:17:33;20.00;1.00
33903;DHT22;20194;50.950;5.346;2023-05-29T09:19:59;20.10;1.00
33903;DHT22;20194;50.950;5.346;2023-05-29T09:22:26;20.30;1.00
33903;DHT22;20194;50.950;5.346;2023-05-29T09:24:52;20.10;1.00
33903;DHT22;20194;50.950;5.346;2023-05-29T09:27:18;19.50;1.00
33903;DHT22;20194;50.950;5.346;2023-05-29T09:29:45;19.70;1.00
33903;DHT22;20194;50.950;5.346;2023-05-29T09:32:16;20.00;1.00
33903;DHT22;20194;50.950;5.346;2023-05-29T09:34:43;20.10;1.00
33903;DHT22;20194;50.950;5.346;2023-05-29T09:37:10;20.30;1.00
33903;DHT22;20194;50.950;5.346;2023-05-29T09:42:12;20.30;1.00
33903;DHT22;20194;50.950;5.346;2023-05-29T09:44:39;19.90;1.00
33903;DHT22;20194;50.950;5.346;2023-05-29T09:47:05;20.20;1.00
33903;DHT22;20194;50.950;5.346;2023-05-29T09:49:32;20.50;1.00
33903;DHT22;20194;50.950;5.346;2023-05-29T09:51:58;20.50;1.00
33903;DHT22;20194;50.950;5.346;2023-05-29T09:54:28;20.90;1.00
33903;DHT22;20194;50.950;5.346;2023-05-29T09:56:58;20.90;1.00
33903;DHT22;20194;50.950;5.346;2023-05-29T09:59:26;20.90;1.00
33903;DHT22;20194;50.950;5.346;2023-05-29T10:02:00;21.00;1.00
33903;DHT22;20194;50.950;5.346;2023-05-29T10:04:35;21.00;1.00
33903;DHT22;20194;50.950;5.346;2023-05-29T10:07:09;20.80;1.00
33903;DHT22;20194;50.950;5.346;2023-05-29T10:09:41;20.90;1.00
33903;DHT22;20194;50.950;5.346;2023-05-29T10:12:11;21.00;1.00
33903;DHT22;20194;50.950;5.346;2023-05-29T10:14:39;20.80;1.00
33903;DHT22;20194;50.950;5.346;2023-05-29T10:17:08;20.60;1.00
33903;DHT22;20194;50.950;5.346;2023-05-29T10:19:36;21.10;1.00
33903;DHT22;20194;50.950;5.346;2023-05-29T10:22:04;21.50;1.00
33903;DHT22;20194;50.950;5.346;2023-05-29T10:24:32;21.40;1.00
33903;DHT22;20194;50.950;5.346;2023-05-29T10:26:59;21.30;1.00
33903;DHT22;20194;50.950;5.346;2023-05-29T10:29:37;21.50;1.00
33903;DHT22;20194;50.950;5.346;2023-05-29T10:32:16;21.60;1.00
33903;DHT22;20194;50.950;5.346;2023-05-29T10:36:07;20.90;1.00
33903;DHT22;20194;50.950;5.346;2023-05-29T10:38:16;20.50;1.00
33903;DHT22;20194;50.950;5.346;2023-05-29T10:40:44;20.80;1.00
33903;DHT22;20194;50.950;5.346;2023-05-29T10:43:33;20.80;1.00
33903;DHT22;20194;50.950;5.346;2023-05-29T10:46:02;21.00;1.00
33903;DHT22;20194;50.950;5.346;2023-05-29T10:50:57;20.90;1.00
33903;DHT22;20194;50.950;5.346;2023-05-29T10:53:24;21.20;1.00
33903;DHT22;20194;50.950;5.346;2023-05-29T10:55:52;21.30;1.00
33903;DHT22;20194;50.950;5.346;2023-05-29T10:58:20;21.40;1.00
33903;DHT22;20194;50.950;5.346;2023-05-29T11:00:47;21.60;1.00
33903;DHT22;20194;50.950;5.346;2023-05-29T11:03:22;21.60;1.00
33903;DHT22;20194;50.950;5.346;2023-05-29T11:06:20;22.00;1.00
33903;DHT22;20194;50.950;5.346;2023-05-29T11:08:47;22.30;1.00
33903;DHT22;20194;50.950;5.346;2023-05-29T11:14:05;21.80;1.00
33903;DHT22;20194;50.950;5.346;2023-05-29T11:18:59;21.80;1.00
33903;DHT22;20194;50.950;5.346;2023-05-29T11:23:54;22.10;1.00
33903;DHT22;20194;50.950;5.346;2023-05-29T11:26:25;21.60;1.00
33903;DHT22;20194;50.950;5.346;2023-05-29T11:28:52;21.50;1.00
33903;DHT22;20194;50.950;5.346;2023-05-29T11:31:19;21.10;1.00
33903;DHT22;20194;50.950;5.346;2023-05-29T11:33:50;21.10;1.00
33903;DHT22;20194;50.950;5.346;2023-05-29T11:36:18;21.30;1.00
33903;DHT22;20194;50.950;5.346;2023-05-29T11:38:46;21.50;1.00
33903;DHT22;20194;50.950;5.346;2023-05-29T11:41:12;21.30;1.00
33903;DHT22;20194;50.950;5.346;2023-05-29T11:43:38;21.40;1.00
33903;DHT22;20194;50.950;5.346;2023-05-29T11:46:17;21.40;1.00
33903;DHT22;20194;50.950;5.346;2023-05-29T11:48:47;21.30;1.00
33903;DHT22;20194;50.950;5.346;2023-05-29T11:51:12;21.60;1.00
33903;DHT22;20194;50.950;5.346;2023-05-29T11:53:43;21.50;1.00
33903;DHT22;20194;50.950;5.346;2023-05-29T11:56:12;21.50;1.00
33903;DHT22;20194;50.950;5.346;2023-05-29T11:58:42;21.50;1.00
33903;DHT22;20194;50.950;5.346;2023-05-29T12:01:08;21.60;1.00
33903;DHT22;20194;50.950;5.346;2023-05-29T12:03:41;22.00;1.00
33903;DHT22;20194;50.950;5.346;2023-05-29T12:06:08;22.10;1.00
33903;DHT22;20194;50.950;5.346;2023-05-29T12:08:36;22.00;1.00
33903;DHT22;20194;50.950;5.346;2023-05-29T12:11:03;22.20;1.00
33903;DHT22;20194;50.950;5.346;2023-05-29T12:13:28;22.30;1.00
33903;DHT22;20194;50.950;5.346;2023-05-29T12:15:57;22.50;1.00
33903;DHT22;20194;50.950;5.346;2023-05-29T12:18:24;21.90;1.00
33903;DHT22;20194;50.950;5.346;2023-05-29T12:20:50;21.90;1.00
33903;DHT22;20194;50.950;5.346;2023-05-29T12:23:17;21.60;1.00
33903;DHT22;20194;50.950;5.346;2023-05-29T12:25:46;21.50;1.00
33903;DHT22;20194;50.950;5.346;2023-05-29T12:28:16;21.80;1.00
33903;DHT22;20194;50.950;5.346;2023-05-29T12:30:42;22.10;1.00
33903;DHT22;20194;50.950;5.346;2023-05-29T12:33:09;21.90;1.00
33903;DHT22;20194;50.950;5.346;2023-05-29T12:35:35;21.90;1.00
33903;DHT22;20194;50.950;5.346;2023-05-29T12:38:04;22.00;1.00
33903;DHT22;20194;50.950;5.346;2023-05-29T12:40:32;22.20;1.00
33903;DHT22;20194;50.950;5.346;2023-05-29T12:43:06;22.40;1.00
33903;DHT22;20194;50.950;5.346;2023-05-29T12:45:34;22.30;1.00
33903;DHT22;20194;50.950;5.346;2023-05-29T12:48:04;22.30;1.00
33903;DHT22;20194;50.950;5.346;2023-05-29T12:50:49;22.40;1.00
33903;DHT22;20194;50.950;5.346;2023-05-29T12:53:15;22.50;1.00
33903;DHT22;20194;50.950;5.346;2023-05-29T12:55:42;22.50;1.00
33903;DHT22;20194;50.950;5.346;2023-05-29T12:58:13;22.70;1.00
33903;DHT22;20194;50.950;5.346;2023-05-29T13:00:40;22.80;1.00
33903;DHT22;20194;50.950;5.346;2023-05-29T13:03:07;22.70;1.00
33903;DHT22;20194;50.950;5.346;2023-05-29T13:05:33;22.50;1.00
33903;DHT22;20194;50.950;5.346;2023-05-29T13:07:59;22.60;1.00
33903;DHT22;20194;50.950;5.346;2023-05-29T13:10:26;22.40;1.00
33903;DHT22;20194;50.950;5.346;2023-05-29T13:12:54;22.40;1.00
33903;DHT22;20194;50.950;5.346;2023-05-29T13:15:22;22.40;1.00
33903;DHT22;20194;50.950;5.346;2023-05-29T13:17:48;22.40;1.00
33903;DHT22;20194;50.950;5.346;2023-05-29T13:20:14;22.30;1.00
33903;DHT22;20194;50.950;5.346;2023-05-29T13:22:41;22.20;1.00
33903;DHT22;20194;50.950;5.346;2023-05-29T13:25:09;22.30;1.00
33903;DHT22;20194;50.950;5.346;2023-05-29T13:27:36;22.30;1.00
33903;DHT22;20194;50.950;5.346;2023-05-29T13:30:03;22.40;1.00
33903;DHT22;20194;50.950;5.346;2023-05-29T13:32:29;22.40;1.00
33903;DHT22;20194;50.950;5.346;2023-05-29T13:34:55;22.50;1.00
33903;DHT22;20194;50.950;5.346;2023-05-29T13:37:21;22.60;1.00
33903;DHT22;20194;50.950;5.346;2023-05-29T13:39:47;22.60;99.90
33903;DHT22;20194;50.950;5.346;2023-05-29T13:42:12;22.50;1.00
33903;DHT22;20194;50.950;5.346;2023-05-29T13:44:38;22.30;1.00
33903;DHT22;20194;50.950;5.346;2023-05-29T13:47:06;22.30;1.00
33903;DHT22;20194;50.950;5.346;2023-05-29T13:49:33;22.20;1.00
33903;DHT22;20194;50.950;5.346;2023-05-29T13:51:58;22.30;1.00
33903;DHT22;20194;50.950;5.346;2023-05-29T13:54:24;22.30;1.00
33903;DHT22;20194;50.950;5.346;2023-05-29T13:56:50;22.50;1.00
33903;DHT22;20194;50.950;5.346;2023-05-29T13:59:16;22.60;1.00
33903;DHT22;20194;50.950;5.346;2023-05-29T14:01:42;22.60;1.00
33903;DHT22;20194;50.950;5.346;2023-05-29T14:04:07;22.50;1.00
33903;DHT22;20194;50.950;5.346;2023-05-29T14:06:33;22.60;1.00
33903;DHT22;20194;50.950;5.346;2023-05-29T14:08:59;22.60;1.00
33903;DHT22;20194;50.950;5.346;2023-05-29T14:11:25;22.60;1.00
33903;DHT22;20194;50.950;5.346;2023-05-29T14:13:52;22.60;1.00
33903;DHT22;20194;50.950;5.346;2023-05-29T14:16:18;22.20;1.00
33903;DHT22;20194;50.950;5.346;2023-05-29T14:18:43;22.00;1.00
33903;DHT22;20194;50.950;5.346;2023-05-29T14:21:09;22.00;1.00
33903;DHT22;20194;50.950;5.346;2023-05-29T14:23:36;22.20;1.00
33903;DHT22;20194;50.950;5.346;2023-05-29T14:26:02;22.20;1.00
33903;DHT22;20194;50.950;5.346;2023-05-29T14:28:28;22.30;1.00
33903;DHT22;20194;50.950;5.346;2023-05-29T14:30:54;22.30;1.00
33903;DHT22;20194;50.950;5.346;2023-05-29T14:33:19;22.20;1.00
33903;DHT22;20194;50.950;5.346;2023-05-29T14:35:46;22.10;1.00
33903;DHT22;20194;50.950;5.346;2023-05-29T14:38:11;22.00;1.00
33903;DHT22;20194;50.950;5.346;2023-05-29T14:40:37;22.20;1.00
33903;DHT22;20194;50.950;5.346;2023-05-29T14:43:04;22.10;1.00
33903;DHT22;20194;50.950;5.346;2023-05-29T14:45:30;22.10;1.00
33903;DHT22;20194;50.950;5.346;2023-05-29T14:47:55;22.20;1.00
33903;DHT22;20194;50.950;5.346;2023-05-29T14:50:21;22.40;1.00
33903;DHT22;20194;50.950;5.346;2023-05-29T14:52:47;22.20;1.00
33903;DHT22;20194;50.950;5.346;2023-05-29T14:55:15;22.00;1.00
33903;DHT22;20194;50.950;5.346;2023-05-29T14:57:41;22.10;1.00
33903;DHT22;20194;50.950;5.346;2023-05-29T15:00:07;22.00;1.00
33903;DHT22;20194;50.950;5.346;2023-05-29T15:02:33;21.80;1.00
33903;DHT22;20194;50.950;5.346;2023-05-29T15:04:59;21.70;1.00
33903;DHT22;20194;50.950;5.346;2023-05-29T15:07:25;21.60;1.00
33903;DHT22;20194;50.950;5.346;2023-05-29T15:09:51;21.30;1.00
33903;DHT22;20194;50.950;5.346;2023-05-29T15:12:17;21.20;1.00
33903;DHT22;20194;50.950;5.346;2023-05-29T15:14:42;21.40;1.00
33903;DHT22;20194;50.950;5.346;2023-05-29T15:17:09;21.50;1.00
33903;DHT22;20194;50.950;5.346;2023-05-29T15:19:34;21.30;1.00
33903;DHT22;20194;50.950;5.346;2023-05-29T15:22:00;21.40;1.00
33903;DHT22;20194;50.950;5.346;2023-05-29T15:24:26;21.40;1.00
33903;DHT22;20194;50.950;5.346;2023-05-29T15:26:51;21.50;1.00
33903;DHT22;20194;50.950;5.346;2023-05-29T15:29:17;21.50;1.00
33903;DHT22;20194;50.950;5.346;2023-05-29T15:31:43;21.50;1.00
33903;DHT22;20194;50.950;5.346;2023-05-29T15:34:09;21.60;1.00
33903;DHT22;20194;50.950;5.346;2023-05-29T15:36:34;21.40;1.00
33903;DHT22;20194;50.950;5.346;2023-05-29T15:39:02;21.30;1.00
33903;DHT22;20194;50.950;5.346;2023-05-29T15:41:28;21.20;1.00
33903;DHT22;20194;50.950;5.346;2023-05-29T15:43:55;21.10;1.00
33903;DHT22;20194;50.950;5.346;2023-05-29T15:46:21;21.10;1.00
33903;DHT22;20194;50.950;5.346;2023-05-29T15:48:47;21.10;1.00
33903;DHT22;20194;50.950;5.346;2023-05-29T15:51:12;21.20;1.00
33903;DHT22;20194;50.950;5.346;2023-05-29T15:53:38;21.00;1.00
33903;DHT22;20194;50.950;5.346;2023-05-29T15:56:04;21.10;1.00
33903;DHT22;20194;50.950;5.346;2023-05-29T15:58:31;21.10;1.00
33903;DHT22;20194;50.950;5.346;2023-05-29T16:00:56;21.30;1.00
33903;DHT22;20194;50.950;5.346;2023-05-29T16:03:22;21.20;1.00
33903;DHT22;20194;50.950;5.346;2023-05-29T16:05:48;21.40;1.00